sensor_id;sensor_type;location;lat;lon;timestamp;pressure;altitude;pressure_sealevel;temperature;humidity
73171;BME280;61381;50.118;19.962;2023-10-09T00:02:12;99354.66;;;6.13;100.00
73171;BME280;61381;50.118;19.962;2023-10-09T00:07:13;99342.16;;;6.01;100.00
73171;BME280;61381;50.118;19.962;2023-10-09T00:12:16;99336.84;;;6.01;100.00
73171;BME280;61381;50.118;19.962;2023-10-09T00:17:17;99336.84;;;6.01;100.00
73171;BME280;61381;50.118;19.962;2023-10-09T00:22:18;99344.00;;;5.89;100.00
73171;BME280;61381;50.118;19.962;2023-10-09T00:27:21;99346.78;;;6.06;100.00
73171;BME280;61381;50.118;19.962;2023-10-09T00:32:22;99323.78;;;6.52;100.00
73171;BME280;61381;50.118;19.962;2023-10-09T00:37:22;99311.28;;;6.53;98.76
73171;BME280;61381;50.118;19.962;2023-10-09T00:42:25;99303.59;;;6.28;99.33
73171;BME280;61381;50.118;19.962;2023-10-09T00:47:26;99299.34;;;6.27;100.00
73171;BME280;61381;50.118;19.962;2023-10-09T00:52:28;99296.00;;;6.60;100.00
73171;BME280;61381;50.118;19.962;2023-10-09T00:57:34;99287.22;;;6.48;100.00
73171;BME280;61381;50.118;19.962;2023-10-09T01:02:35;99274.50;;;6.50;100.00
73171;BME280;61381;50.118;19.962;2023-10-09T01:07:36;99250.63;;;6.55;98.69
73171;BME280;61381;50.118;19.962;2023-10-09T01:12:39;99243.03;;;6.47;100.00
73171;BME280;61381;50.118;19.962;2023-10-09T01:17:40;99240.06;;;6.02;99.21
73171;BME280;61381;50.118;19.962;2023-10-09T01:22:41;99241.47;;;5.81;100.00
73171;BME280;61381;50.118;19.962;2023-10-09T01:27:43;99232.22;;;5.72;99.02
73171;BME280;61381;50.118;19.962;2023-10-09T01:32:44;99226.84;;;5.31;100.00
73171;BME280;61381;50.118;19.962;2023-10-09T01:37:45;99232.59;;;5.40;100.00
73171;BME280;61381;50.118;19.962;2023-10-09T01:42:47;99239.06;;;5.21;100.00
73171;BME280;61381;50.118;19.962;2023-10-09T01:47:48;99214.59;;;5.18;100.00
73171;BME280;61381;50.118;19.962;2023-10-09T01:52:49;99241.38;;;5.64;100.00
73171;BME280;61381;50.118;19.962;2023-10-09T01:57:51;99239.03;;;5.68;100.00
73171;BME280;61381;50.118;19.962;2023-10-09T02:02:52;99219.59;;;6.03;100.00
73171;BME280;61381;50.118;19.962;2023-10-09T02:07:53;99213.16;;;5.99;99.38
73171;BME280;61381;50.118;19.962;2023-10-09T02:12:57;99214.63;;;5.95;99.25
73171;BME280;61381;50.118;19.962;2023-10-09T02:17:58;99228.94;;;5.94;99.33
73171;BME280;61381;50.118;19.962;2023-10-09T02:22:58;99224.13;;;5.79;99.83
73171;BME280;61381;50.118;19.962;2023-10-09T02:28:00;99215.25;;;5.49;100.00
73171;BME280;61381;50.118;19.962;2023-10-09T02:33:02;99184.97;;;6.15;100.00
73171;BME280;61381;50.118;19.962;2023-10-09T02:38:03;99195.03;;;6.41;99.82
73171;BME280;61381;50.118;19.962;2023-10-09T02:43:06;99178.25;;;6.41;100.00
73171;BME280;61381;50.118;19.962;2023-10-09T02:48:07;99186.78;;;6.43;99.39
73171;BME280;61381;50.118;19.962;2023-10-09T02:53:08;99185.19;;;6.42;98.86
73171;BME280;61381;50.118;19.962;2023-10-09T02:58:10;99182.28;;;6.27;100.00
73171;BME280;61381;50.118;19.962;2023-10-09T03:03:11;99187.16;;;6.64;100.00
73171;BME280;61381;50.118;19.962;2023-10-09T03:08:12;99175.38;;;6.76;98.35
73171;BME280;61381;50.118;19.962;2023-10-09T03:13:14;99165.44;;;6.89;96.30
73171;BME280;61381;50.118;19.962;2023-10-09T03:18:15;99174.03;;;6.74;99.20
73171;BME280;61381;50.118;19.962;2023-10-09T03:23:16;99173.38;;;6.67;99.56
73171;BME280;61381;50.118;19.962;2023-10-09T03:28:18;99175.22;;;6.66;100.00
73171;BME280;61381;50.118;19.962;2023-10-09T03:33:19;99169.56;;;6.79;99.33
73171;BME280;61381;50.118;19.962;2023-10-09T03:38:20;99186.69;;;6.67;100.00
73171;BME280;61381;50.118;19.962;2023-10-09T03:43:22;99155.22;;;6.64;100.00
73171;BME280;61381;50.118;19.962;2023-10-09T03:48:23;99139.16;;;6.75;100.00
73171;BME280;61381;50.118;19.962;2023-10-09T03:53:24;99140.44;;;6.90;100.00
73171;BME280;61381;50.118;19.962;2023-10-09T03:58:26;99129.63;;;7.36;100.00
73171;BME280;61381;50.118;19.962;2023-10-09T04:03:27;99109.28;;;7.29;97.97
73171;BME280;61381;50.118;19.962;2023-10-09T04:08:28;99102.19;;;7.18;98.92
73171;BME280;61381;50.118;19.962;2023-10-09T04:13:31;99105.88;;;7.34;97.70
73171;BME280;61381;50.118;19.962;2023-10-09T04:18:32;99101.47;;;7.45;98.02
73171;BME280;61381;50.118;19.962;2023-10-09T04:23:33;99109.84;;;7.31;100.00
73171;BME280;61381;50.118;19.962;2023-10-09T04:28:35;99098.47;;;7.19;100.00
73171;BME280;61381;50.118;19.962;2023-10-09T04:33:36;99087.28;;;7.61;99.15
73171;BME280;61381;50.118;19.962;2023-10-09T04:38:36;99087.09;;;7.46;98.27
73171;BME280;61381;50.118;19.962;2023-10-09T04:43:39;99072.16;;;7.45;98.42
73171;BME280;61381;50.118;19.962;2023-10-09T04:48:40;99066.91;;;7.28;100.00
73171;BME280;61381;50.118;19.962;2023-10-09T04:53:40;99063.19;;;7.78;97.21
73171;BME280;61381;50.118;19.962;2023-10-09T04:58:43;99067.53;;;7.84;97.17
73171;BME280;61381;50.118;19.962;2023-10-09T05:03:43;99064.09;;;7.89;97.04
73171;BME280;61381;50.118;19.962;2023-10-09T05:08:44;99055.19;;;8.06;97.05
73171;BME280;61381;50.118;19.962;2023-10-09T05:13:47;99055.84;;;8.23;96.01
73171;BME280;61381;50.118;19.962;2023-10-09T05:18:48;99047.50;;;8.47;95.42
73171;BME280;61381;50.118;19.962;2023-10-09T05:23:50;99030.06;;;8.71;94.92
73171;BME280;61381;50.118;19.962;2023-10-09T05:28:52;99019.81;;;9.06;93.80
73171;BME280;61381;50.118;19.962;2023-10-09T05:33:53;99014.81;;;9.30;95.57
73171;BME280;61381;50.118;19.962;2023-10-09T05:38:53;99008.16;;;9.33;91.64
73171;BME280;61381;50.118;19.962;2023-10-09T05:43:55;99000.97;;;9.43;92.38
73171;BME280;61381;50.118;19.962;2023-10-09T05:48:56;98965.00;;;9.03;93.15
73171;BME280;61381;50.118;19.962;2023-10-09T05:53:57;98983.16;;;9.01;93.28
73171;BME280;61381;50.118;19.962;2023-10-09T05:58:59;98964.78;;;9.15;95.61
73171;BME280;61381;50.118;19.962;2023-10-09T06:04:00;98957.53;;;9.10;94.00
73171;BME280;61381;50.118;19.962;2023-10-09T06:09:01;98966.41;;;9.16;92.79
73171;BME280;61381;50.118;19.962;2023-10-09T06:14:11;98958.13;;;9.18;92.02
73171;BME280;61381;50.118;19.962;2023-10-09T06:19:27;98980.97;;;8.88;92.49
73171;BME280;61381;50.118;19.962;2023-10-09T06:24:29;98988.56;;;9.17;90.16
73171;BME280;61381;50.118;19.962;2023-10-09T06:29:32;98988.78;;;8.95;91.25
73171;BME280;61381;50.118;19.962;2023-10-09T06:34:32;99007.03;;;9.18;90.38
73171;BME280;61381;50.118;19.962;2023-10-09T06:39:34;99013.63;;;8.95;96.74
73171;BME280;61381;50.118;19.962;2023-10-09T06:44:36;99018.41;;;9.67;93.67
73171;BME280;61381;50.118;19.962;2023-10-09T06:49:37;99019.94;;;9.52;91.65
73171;BME280;61381;50.118;19.962;2023-10-09T06:54:38;99004.72;;;9.58;90.66
73171;BME280;61381;50.118;19.962;2023-10-09T06:59:40;99004.69;;;9.42;90.07
73171;BME280;61381;50.118;19.962;2023-10-09T07:04:41;99007.13;;;9.59;91.30
73171;BME280;61381;50.118;19.962;2023-10-09T07:09:42;99020.25;;;9.61;92.91
73171;BME280;61381;50.118;19.962;2023-10-09T07:14:44;99004.97;;;9.46;92.97
73171;BME280;61381;50.118;19.962;2023-10-09T07:19:45;99003.38;;;9.45;91.80
73171;BME280;61381;50.118;19.962;2023-10-09T07:24:46;99017.09;;;10.05;89.12
73171;BME280;61381;50.118;19.962;2023-10-09T07:29:48;99006.38;;;10.15;87.90
73171;BME280;61381;50.118;19.962;2023-10-09T07:34:50;99005.31;;;10.22;87.10
73171;BME280;61381;50.118;19.962;2023-10-09T07:39:51;99001.03;;;9.95;88.99
73171;BME280;61381;50.118;19.962;2023-10-09T07:44:56;98995.38;;;10.27;88.80
73171;BME280;61381;50.118;19.962;2023-10-09T07:49:57;98994.59;;;9.96;90.69
73171;BME280;61381;50.118;19.962;2023-10-09T07:54:58;98981.59;;;9.05;93.97
73171;BME280;61381;50.118;19.962;2023-10-09T08:00:00;99001.00;;;9.74;96.62
73171;BME280;61381;50.118;19.962;2023-10-09T08:05:01;99010.38;;;10.03;96.45
73171;BME280;61381;50.118;19.962;2023-10-09T08:10:03;98993.53;;;9.71;99.93
73171;BME280;61381;50.118;19.962;2023-10-09T08:15:07;98995.88;;;9.52;99.97
73171;BME280;61381;50.118;19.962;2023-10-09T08:20:08;98965.66;;;9.57;100.00
73171;BME280;61381;50.118;19.962;2023-10-09T08:25:10;98964.81;;;9.25;100.00
73171;BME280;61381;50.118;19.962;2023-10-09T08:30:13;98967.28;;;9.78;100.00
73171;BME280;61381;50.118;19.962;2023-10-09T08:35:14;98955.25;;;10.38;100.00
73171;BME280;61381;50.118;19.962;2023-10-09T08:40:15;98952.28;;;10.13;99.84
73171;BME280;61381;50.118;19.962;2023-10-09T08:45:21;98946.16;;;9.87;100.00
73171;BME280;61381;50.118;19.962;2023-10-09T08:50:22;98931.78;;;10.84;98.46
73171;BME280;61381;50.118;19.962;2023-10-09T08:55:23;98932.94;;;11.18;100.00
73171;BME280;61381;50.118;19.962;2023-10-09T09:00:25;98912.22;;;10.84;94.30
73171;BME280;61381;50.118;19.962;2023-10-09T09:05:26;98924.50;;;11.40;93.21
73171;BME280;61381;50.118;19.962;2023-10-09T09:10:28;98913.28;;;11.38;92.98
73171;BME280;61381;50.118;19.962;2023-10-09T09:15:30;98913.09;;;11.58;90.94
73171;BME280;61381;50.118;19.962;2023-10-09T09:20:32;98901.47;;;11.68;87.92
73171;BME280;61381;50.118;19.962;2023-10-09T09:25:40;98874.47;;;12.18;87.80
73171;BME280;61381;50.118;19.962;2023-10-09T09:30:42;98867.03;;;12.34;85.07
73171;BME280;61381;50.118;19.962;2023-10-09T09:35:56;98868.03;;;12.87;81.49
73171;BME280;61381;50.118;19.962;2023-10-09T09:40:57;98873.59;;;13.47;78.76
73171;BME280;61381;50.118;19.962;2023-10-09T09:46:00;98855.72;;;12.99;81.25
73171;BME280;61381;50.118;19.962;2023-10-09T09:51:01;98841.47;;;13.18;80.34
73171;BME280;61381;50.118;19.962;2023-10-09T09:56:03;98843.88;;;13.38;78.85
73171;BME280;61381;50.118;19.962;2023-10-09T10:01:06;98849.41;;;13.09;78.29
73171;BME280;61381;50.118;19.962;2023-10-09T10:06:07;98861.81;;;12.24;80.10
73171;BME280;61381;50.118;19.962;2023-10-09T10:11:41;98848.31;;;12.91;82.94
73171;BME280;61381;50.118;19.962;2023-10-09T10:17:02;98848.59;;;12.71;80.27
73171;BME280;61381;50.118;19.962;2023-10-09T10:22:23;98842.34;;;12.75;82.16
73171;BME280;61381;50.118;19.962;2023-10-09T10:27:25;98821.75;;;12.46;84.58
73171;BME280;61381;50.118;19.962;2023-10-09T10:32:54;98798.84;;;12.73;84.68
73171;BME280;61381;50.118;19.962;2023-10-09T10:37:56;98795.69;;;12.66;84.09
73171;BME280;61381;50.118;19.962;2023-10-09T10:42:56;98805.50;;;12.38;86.10
73171;BME280;61381;50.118;19.962;2023-10-09T10:47:59;98807.31;;;12.61;84.63
73171;BME280;61381;50.118;19.962;2023-10-09T10:53:11;98795.41;;;12.05;86.78
73171;BME280;61381;50.118;19.962;2023-10-09T10:58:15;98761.50;;;11.85;92.66
73171;BME280;61381;50.118;19.962;2023-10-09T11:03:21;98752.34;;;11.86;93.19
73171;BME280;61381;50.118;19.962;2023-10-09T11:08:24;98744.03;;;12.31;91.98
73171;BME280;61381;50.118;19.962;2023-10-09T11:13:26;98727.63;;;12.32;92.63
73171;BME280;61381;50.118;19.962;2023-10-09T11:18:28;98715.97;;;12.42;91.44
73171;BME280;61381;50.118;19.962;2023-10-09T11:23:30;98687.25;;;12.19;92.65
73171;BME280;61381;50.118;19.962;2023-10-09T11:28:31;98693.72;;;12.37;91.71
73171;BME280;61381;50.118;19.962;2023-10-09T11:33:44;98686.34;;;11.37;93.75
73171;BME280;61381;50.118;19.962;2023-10-09T11:38:46;98690.19;;;12.22;93.97
73171;BME280;61381;50.118;19.962;2023-10-09T11:43:48;98676.47;;;11.56;94.01
73171;BME280;61381;50.118;19.962;2023-10-09T11:49:04;98668.75;;;11.50;97.35
73171;BME280;61381;50.118;19.962;2023-10-09T11:54:05;98662.59;;;11.98;92.06
73171;BME280;61381;50.118;19.962;2023-10-09T11:59:05;98654.25;;;11.75;94.86
73171;BME280;61381;50.118;19.962;2023-10-09T12:04:08;98651.94;;;12.11;92.84
73171;BME280;61381;50.118;19.962;2023-10-09T12:09:09;98651.47;;;12.04;95.58
73171;BME280;61381;50.118;19.962;2023-10-09T12:14:09;98653.78;;;11.68;93.73
73171;BME280;61381;50.118;19.962;2023-10-09T12:19:12;98664.03;;;12.09;91.76
73171;BME280;61381;50.118;19.962;2023-10-09T12:24:12;98647.53;;;11.53;96.42
73171;BME280;61381;50.118;19.962;2023-10-09T12:29:13;98639.38;;;11.39;98.15
73171;BME280;61381;50.118;19.962;2023-10-09T12:34:15;98636.16;;;11.13;100.00
73171;BME280;61381;50.118;19.962;2023-10-09T12:39:16;98621.75;;;11.04;100.00
73171;BME280;61381;50.118;19.962;2023-10-09T12:44:17;98619.34;;;11.32;99.18
73171;BME280;61381;50.118;19.962;2023-10-09T12:49:20;98623.03;;;11.36;99.35
73171;BME280;61381;50.118;19.962;2023-10-09T12:54:21;98622.19;;;11.40;98.79
73171;BME280;61381;50.118;19.962;2023-10-09T12:59:22;98617.84;;;11.45;98.32
73171;BME280;61381;50.118;19.962;2023-10-09T13:04:24;98619.91;;;11.29;99.63
73171;BME280;61381;50.118;19.962;2023-10-09T13:09:25;98627.41;;;11.75;97.85
73171;BME280;61381;50.118;19.962;2023-10-09T13:14:26;98630.38;;;11.73;96.46
73171;BME280;61381;50.118;19.962;2023-10-09T13:19:28;98629.72;;;11.63;97.53
73171;BME280;61381;50.118;19.962;2023-10-09T13:24:29;98620.34;;;11.36;99.13
73171;BME280;61381;50.118;19.962;2023-10-09T13:29:30;98602.28;;;10.98;100.00
73171;BME280;61381;50.118;19.962;2023-10-09T13:34:32;98601.66;;;11.06;100.00
73171;BME280;61381;50.118;19.962;2023-10-09T13:39:33;98605.69;;;11.52;97.99
73171;BME280;61381;50.118;19.962;2023-10-09T13:44:34;98604.34;;;11.74;97.04
73171;BME280;61381;50.118;19.962;2023-10-09T13:49:36;98592.34;;;10.99;99.74
73171;BME280;61381;50.118;19.962;2023-10-09T13:54:37;98588.34;;;11.45;98.55
73171;BME280;61381;50.118;19.962;2023-10-09T13:59:38;98591.22;;;11.72;97.21
73171;BME280;61381;50.118;19.962;2023-10-09T14:04:40;98577.88;;;11.67;96.90
73171;BME280;61381;50.118;19.962;2023-10-09T14:09:41;98579.03;;;11.80;96.89
73171;BME280;61381;50.118;19.962;2023-10-09T14:14:43;98574.28;;;11.53;98.84
73171;BME280;61381;50.118;19.962;2023-10-09T14:19:47;98575.22;;;11.19;100.00
73171;BME280;61381;50.118;19.962;2023-10-09T14:24:48;98560.44;;;10.73;100.00
73171;BME280;61381;50.118;19.962;2023-10-09T14:29:49;98562.56;;;11.49;100.00
73171;BME280;61381;50.118;19.962;2023-10-09T14:34:52;98572.53;;;11.62;98.93
73171;BME280;61381;50.118;19.962;2023-10-09T14:39:54;98568.16;;;11.28;100.00
73171;BME280;61381;50.118;19.962;2023-10-09T14:44:55;98585.97;;;11.62;98.73
73171;BME280;61381;50.118;19.962;2023-10-09T14:49:57;98602.03;;;11.43;98.74
73171;BME280;61381;50.118;19.962;2023-10-09T14:54:59;98593.66;;;11.01;100.00
73171;BME280;61381;50.118;19.962;2023-10-09T15:00:00;98583.91;;;11.35;99.40
73171;BME280;61381;50.118;19.962;2023-10-09T15:05:03;98582.63;;;11.51;98.26
73171;BME280;61381;50.118;19.962;2023-10-09T15:10:05;98588.63;;;11.43;99.32
73171;BME280;61381;50.118;19.962;2023-10-09T15:15:07;98588.72;;;11.14;100.00
73171;BME280;61381;50.118;19.962;2023-10-09T15:20:11;98584.69;;;11.11;98.95
73171;BME280;61381;50.118;19.962;2023-10-09T15:25:12;98588.06;;;11.46;99.36
73171;BME280;61381;50.118;19.962;2023-10-09T15:30:13;98596.47;;;11.15;100.00
73171;BME280;61381;50.118;19.962;2023-10-09T15:35:15;98601.94;;;11.29;100.00
73171;BME280;61381;50.118;19.962;2023-10-09T15:40:16;98613.72;;;11.04;100.00
73171;BME280;61381;50.118;19.962;2023-10-09T15:45:18;98618.59;;;11.26;100.00
73171;BME280;61381;50.118;19.962;2023-10-09T15:50:21;98608.16;;;11.24;100.00
73171;BME280;61381;50.118;19.962;2023-10-09T15:55:23;98621.47;;;11.05;100.00
73171;BME280;61381;50.118;19.962;2023-10-09T16:00:23;98615.63;;;11.28;100.00
73171;BME280;61381;50.118;19.962;2023-10-09T16:05:26;98597.50;;;11.63;99.18
73171;BME280;61381;50.118;19.962;2023-10-09T16:10:27;98571.13;;;11.27;100.00
73171;BME280;61381;50.118;19.962;2023-10-09T16:15:28;98562.22;;;11.07;100.00
73171;BME280;61381;50.118;19.962;2023-10-09T16:20:30;98585.50;;;11.36;100.00
73171;BME280;61381;50.118;19.962;2023-10-09T16:25:32;98584.47;;;11.32;100.00
73171;BME280;61381;50.118;19.962;2023-10-09T16:30:32;98613.59;;;11.19;100.00
73171;BME280;61381;50.118;19.962;2023-10-09T16:35:35;98634.47;;;10.64;100.00
73171;BME280;61381;50.118;19.962;2023-10-09T16:40:36;98648.75;;;10.54;100.00
73171;BME280;61381;50.118;19.962;2023-10-09T16:45:36;98646.88;;;10.55;100.00
73171;BME280;61381;50.118;19.962;2023-10-09T16:50:39;98647.59;;;10.65;100.00
73171;BME280;61381;50.118;19.962;2023-10-09T16:55:40;98656.06;;;10.43;100.00
73171;BME280;61381;50.118;19.962;2023-10-09T17:00:41;98651.72;;;10.52;100.00
73171;BME280;61381;50.118;19.962;2023-10-09T17:05:43;98663.38;;;10.67;100.00
73171;BME280;61381;50.118;19.962;2023-10-09T17:10:44;98661.88;;;10.56;100.00
73171;BME280;61381;50.118;19.962;2023-10-09T17:15:45;98657.53;;;10.94;100.00
73171;BME280;61381;50.118;19.962;2023-10-09T17:20:48;98660.72;;;10.96;100.00
73171;BME280;61381;50.118;19.962;2023-10-09T17:25:49;98676.94;;;11.10;100.00
73171;BME280;61381;50.118;19.962;2023-10-09T17:30:49;98700.09;;;10.66;100.00
73171;BME280;61381;50.118;19.962;2023-10-09T17:36:04;98711.84;;;11.05;100.00
73171;BME280;61381;50.118;19.962;2023-10-09T17:41:06;98714.88;;;10.93;100.00
73171;BME280;61381;50.118;19.962;2023-10-09T17:46:07;98702.31;;;10.94;100.00
73171;BME280;61381;50.118;19.962;2023-10-09T17:51:09;98694.34;;;11.13;100.00
73171;BME280;61381;50.118;19.962;2023-10-09T17:56:10;98695.88;;;11.48;99.19
73171;BME280;61381;50.118;19.962;2023-10-09T18:01:11;98698.19;;;11.79;96.73
73171;BME280;61381;50.118;19.962;2023-10-09T18:06:13;98702.66;;;11.89;94.76
73171;BME280;61381;50.118;19.962;2023-10-09T18:11:14;98691.25;;;12.02;95.21
73171;BME280;61381;50.118;19.962;2023-10-09T18:16:15;98699.31;;;12.02;95.94
73171;BME280;61381;50.118;19.962;2023-10-09T18:21:17;98710.72;;;11.89;96.54
73171;BME280;61381;50.118;19.962;2023-10-09T18:26:18;98702.78;;;12.03;95.70
73171;BME280;61381;50.118;19.962;2023-10-09T18:31:19;98710.06;;;12.21;94.48
73171;BME280;61381;50.118;19.962;2023-10-09T18:36:21;98713.75;;;11.58;94.78
73171;BME280;61381;50.118;19.962;2023-10-09T18:41:22;98705.63;;;11.87;94.72
73171;BME280;61381;50.118;19.962;2023-10-09T18:46:23;98723.81;;;11.95;95.71
73171;BME280;61381;50.118;19.962;2023-10-09T18:51:25;98720.34;;;12.14;94.59
73171;BME280;61381;50.118;19.962;2023-10-09T18:56:26;98724.56;;;12.20;95.12
73171;BME280;61381;50.118;19.962;2023-10-09T19:01:27;98723.84;;;12.15;94.88
73171;BME280;61381;50.118;19.962;2023-10-09T19:06:29;98716.00;;;12.18;93.93
73171;BME280;61381;50.118;19.962;2023-10-09T19:11:30;98718.78;;;12.13;95.00
73171;BME280;61381;50.118;19.962;2023-10-09T19:16:31;98718.78;;;12.13;94.41
73171;BME280;61381;50.118;19.962;2023-10-09T19:21:33;98724.38;;;11.92;93.18
73171;BME280;61381;50.118;19.962;2023-10-09T19:26:34;98730.28;;;11.94;94.56
73171;BME280;61381;50.118;19.962;2023-10-09T19:31:35;98728.69;;;11.40;97.62
73171;BME280;61381;50.118;19.962;2023-10-09T19:36:37;98727.34;;;11.42;97.96
73171;BME280;61381;50.118;19.962;2023-10-09T19:41:38;98732.66;;;11.72;95.31
73171;BME280;61381;50.118;19.962;2023-10-09T19:46:39;98721.97;;;11.67;96.02
73171;BME280;61381;50.118;19.962;2023-10-09T19:51:41;98734.41;;;11.82;95.41
73171;BME280;61381;50.118;19.962;2023-10-09T19:56:42;98728.09;;;11.97;95.74
73171;BME280;61381;50.118;19.962;2023-10-09T20:01:43;98733.28;;;12.12;93.90
73171;BME280;61381;50.118;19.962;2023-10-09T20:06:45;98739.59;;;12.02;94.38
73171;BME280;61381;50.118;19.962;2023-10-09T20:11:46;98754.03;;;12.06;95.27
73171;BME280;61381;50.118;19.962;2023-10-09T20:16:47;98749.91;;;11.90;95.93
73171;BME280;61381;50.118;19.962;2023-10-09T20:21:49;98752.00;;;12.17;94.98
73171;BME280;61381;50.118;19.962;2023-10-09T20:26:50;98746.91;;;12.59;93.67
73171;BME280;61381;50.118;19.962;2023-10-09T20:31:51;98733.28;;;12.31;94.54
73171;BME280;61381;50.118;19.962;2023-10-09T20:36:53;98733.13;;;12.03;94.56
73171;BME280;61381;50.118;19.962;2023-10-09T20:41:54;98739.03;;;12.62;92.35
73171;BME280;61381;50.118;19.962;2023-10-09T20:46:55;98740.84;;;12.48;92.13
73171;BME280;61381;50.118;19.962;2023-10-09T20:51:57;98734.03;;;12.18;94.96
73171;BME280;61381;50.118;19.962;2023-10-09T20:56:58;98754.56;;;12.08;95.89
73171;BME280;61381;50.118;19.962;2023-10-09T21:01:59;98754.78;;;11.58;97.75
73171;BME280;61381;50.118;19.962;2023-10-09T21:07:01;98741.53;;;11.97;96.25
73171;BME280;61381;50.118;19.962;2023-10-09T21:12:02;98745.50;;;11.75;97.40
73171;BME280;61381;50.118;19.962;2023-10-09T21:17:03;98765.03;;;12.05;96.26
73171;BME280;61381;50.118;19.962;2023-10-09T21:22:05;98762.56;;;12.32;95.02
73171;BME280;61381;50.118;19.962;2023-10-09T21:27:06;98752.47;;;12.24;94.77
73171;BME280;61381;50.118;19.962;2023-10-09T21:32:07;98755.56;;;12.12;96.06
73171;BME280;61381;50.118;19.962;2023-10-09T21:37:09;98763.03;;;12.16;95.27
73171;BME280;61381;50.118;19.962;2023-10-09T21:42:10;98761.84;;;12.03;95.95
73171;BME280;61381;50.118;19.962;2023-10-09T21:47:11;98759.81;;;11.94;96.45
73171;BME280;61381;50.118;19.962;2023-10-09T21:52:13;98769.28;;;11.87;96.48
73171;BME280;61381;50.118;19.962;2023-10-09T21:57:14;98755.06;;;11.57;98.52
73171;BME280;61381;50.118;19.962;2023-10-09T22:02:15;98765.72;;;11.67;98.07
73171;BME280;61381;50.118;19.962;2023-10-09T22:07:17;98784.69;;;12.00;96.38
73171;BME280;61381;50.118;19.962;2023-10-09T22:12:18;98793.22;;;11.54;98.46
73171;BME280;61381;50.118;19.962;2023-10-09T22:17:19;98794.13;;;11.39;99.60
73171;BME280;61381;50.118;19.962;2023-10-09T22:22:22;98796.38;;;11.27;99.87
73171;BME280;61381;50.118;19.962;2023-10-09T22:27:23;98808.59;;;11.09;100.00
73171;BME280;61381;50.118;19.962;2023-10-09T22:32:24;98787.19;;;11.67;97.62
73171;BME280;61381;50.118;19.962;2023-10-09T22:37:26;98792.53;;;11.97;96.71
73171;BME280;61381;50.118;19.962;2023-10-09T22:42:27;98789.59;;;11.69;97.80
73171;BME280;61381;50.118;19.962;2023-10-09T22:47:28;98799.13;;;11.80;97.73
73171;BME280;61381;50.118;19.962;2023-10-09T22:52:30;98799.56;;;11.92;97.18
73171;BME280;61381;50.118;19.962;2023-10-09T22:57:32;98797.19;;;11.86;95.95
73171;BME280;61381;50.118;19.962;2023-10-09T23:02:33;98800.72;;;12.29;94.50
73171;BME280;61381;50.118;19.962;2023-10-09T23:07:35;98793.03;;;12.23;95.07
73171;BME280;61381;50.118;19.962;2023-10-09T23:12:36;98798.34;;;11.50;98.64
73171;BME280;61381;50.118;19.962;2023-10-09T23:17:37;98803.16;;;11.77;97.43
73171;BME280;61381;50.118;19.962;2023-10-09T23:22:39;98794.03;;;11.78;98.50
73171;BME280;61381;50.118;19.962;2023-10-09T23:27:40;98806.31;;;11.85;97.85
73171;BME280;61381;50.118;19.962;2023-10-09T23:32:40;98812.31;;;12.06;96.83
73171;BME280;61381;50.118;19.962;2023-10-09T23:37:43;98809.44;;;11.68;98.74
73171;BME280;61381;50.118;19.962;2023-10-09T23:42:44;98822.22;;;11.76;98.47
73171;BME280;61381;50.118;19.962;2023-10-09T23:47:44;98822.06;;;11.97;97.33
73171;BME280;61381;50.118;19.962;2023-10-09T23:52:47;98836.41;;;12.11;96.33
73171;BME280;61381;50.118;19.962;2023-10-09T23:57:47;98831.91;;;12.06;96.38
